Time;durP1;ratioP1;P1;durP2;ratioP2;P2;SDS_P1;SDS_P2;PMS_P1;PMS_P2;Temp;Humidity;BMP_temperature;BMP_pressure;BME280_temperature;BME280_humidity;BME280_pressure;Samples;Min_cycle;Max_cycle;Signal;HPM_P1;HPM_P2
2023/11/11 00:00:28;;;;;;;;;;;;;;;8.26;96.91;98774.66;5015019;28;19918;-73
2023/11/11 00:02:54;;;;;;;;;;;;;;;8.26;97.06;98774.66;5012635;28;20416;-73
2023/11/11 00:05:19;;;;;;;;;;;;;;;8.28;96.71;98773.16;5012628;28;19972;-73
2023/11/11 00:07:44;;;;;;;;;;;;;;;8.29;96.85;98760.84;5016138;28;20019;-73
2023/11/11 00:10:11;;;;;;;;;;;;;;;8.27;96.31;98754.00;5032019;28;20379;-73
2023/11/11 00:12:38;;;;;;;;;;;;;;;8.21;96.57;98742.25;5032047;28;20358;-73
2023/11/11 00:15:04;;;;;;;;;;;;;;;8.23;96.43;98744.69;5023970;28;20012;-73
2023/11/11 00:17:30;;;;;;;;;;;;;;;8.15;96.11;98758.34;5017262;28;19962;-73
2023/11/11 00:19:55;;;;;;;;;;;;;;;8.18;97.15;98737.31;5032124;28;19913;-73
2023/11/11 00:22:21;;;;;;;;;;;;;;;8.13;97.21;98723.59;5031940;28;19942;-73
2023/11/11 00:24:47;;;;;;;;;;;;;;;8.08;98.02;98723.78;5031776;28;19925;-73
2023/11/11 00:27:13;;;;;;;;;;;;;;;8.05;97.82;98714.16;5027428;28;20033;-73
2023/11/11 00:29:40;;;;;;;;;;;;;;;7.87;99.10;98694.75;5012332;28;20304;-73
2023/11/11 00:32:06;;;;;;;;;;;;;;;7.71;100.00;98688.91;5027280;28;19918;-73
2023/11/11 00:34:32;;;;;;;;;;;;;;;7.88;99.90;98681.66;5012345;28;19917;-73
2023/11/11 00:36:58;;;;;;;;;;;;;;;7.97;98.70;98689.94;5029572;28;19924;-73
2023/11/11 00:39:24;;;;;;;;;;;;;;;7.71;100.00;98688.91;5031421;28;19917;-73
2023/11/11 00:41:49;;;;;;;;;;;;;;;7.73;100.00;98689.44;5032061;28;19966;-73
2023/11/11 00:44:14;;;;;;;;;;;;;;;7.77;99.56;98688.75;5030567;28;19935;-73
2023/11/11 00:46:40;;;;;;;;;;;;;;;7.79;99.59;98695.63;5012930;28;19925;-73
2023/11/11 00:49:06;;;;;;;;;;;;;;;7.85;99.37;98690.69;5010849;28;19917;-73
2023/11/11 00:51:32;;;;;;;;;;;;;;;7.89;99.40;98679.66;5018311;28;19949;-73
2023/11/11 00:53:58;;;;;;;;;;;;;;;7.93;98.80;98663.94;5030951;28;19922;-73
2023/11/11 00:56:24;;;;;;;;;;;;;;;7.94;97.95;98655.22;5031031;28;19917;-73
2023/11/11 00:58:49;;;;;;;;;;;;;;;7.82;98.07;98652.34;5035448;28;20300;-73
2023/11/11 01:01:14;;;;;;;;;;;;;;;7.95;97.40;98661.63;5025607;28;20293;-73
2023/11/11 01:03:39;;;;;;;;;;;;;;;7.86;97.88;98658.91;5015947;28;19921;-73
2023/11/11 01:06:06;;;;;;;;;;;;;;;7.96;97.58;98652.09;5026152;28;20443;-73
2023/11/11 01:08:31;;;;;;;;;;;;;;;7.72;97.19;98648.81;5033994;28;19966;-73
2023/11/11 01:10:57;;;;;;;;;;;;;;;7.62;98.99;98642.81;5035565;28;20012;-73
2023/11/11 01:13:23;;;;;;;;;;;;;;;7.62;98.73;98638.06;5034200;28;19924;-73
2023/11/11 01:15:52;;;;;;;;;;;;;;;7.56;98.75;98625.47;5035193;28;19924;-73
2023/11/11 01:18:18;;;;;;;;;;;;;;;7.48;98.62;98640.25;5032697;28;19971;-73
2023/11/11 01:20:43;;;;;;;;;;;;;;;7.43;99.16;98635.72;5031444;28;19999;-73
2023/11/11 01:23:08;;;;;;;;;;;;;;;7.09;100.00;98629.13;5034439;28;20033;-73
2023/11/11 01:25:34;;;;;;;;;;;;;;;7.27;100.00;98639.03;5035385;28;20260;-73
2023/11/11 01:27:59;;;;;;;;;;;;;;;7.43;100.00;98644.84;5035048;28;19927;-73
2023/11/11 01:30:25;;;;;;;;;;;;;;;7.56;99.73;98636.63;5035326;28;19920;-73
2023/11/11 01:32:51;;;;;;;;;;;;;;;7.36;99.50;98633.44;5034864;28;19917;-73
2023/11/11 01:35:17;;;;;;;;;;;;;;;7.45;99.14;98636.97;5033107;28;20315;-73
2023/11/11 01:37:42;;;;;;;;;;;;;;;7.47;98.61;98647.78;5018178;28;19923;-73
2023/11/11 01:40:07;;;;;;;;;;;;;;;7.24;99.80;98647.22;5035040;28;20011;-73
2023/11/11 01:42:33;;;;;;;;;;;;;;;7.20;100.00;98637.91;5034905;28;19923;-73
2023/11/11 01:44:58;;;;;;;;;;;;;;;7.25;100.00;98632.19;5034890;28;20376;-73
2023/11/11 01:47:23;;;;;;;;;;;;;;;7.29;100.00;98635.94;5034514;28;19959;-73
2023/11/11 01:49:49;;;;;;;;;;;;;;;7.41;99.74;98643.56;5034851;28;20303;-73
2023/11/11 01:52:14;;;;;;;;;;;;;;;7.43;99.62;98636.50;5033805;28;19917;-73
2023/11/11 01:54:40;;;;;;;;;;;;;;;7.26;100.00;98640.19;5019510;28;19967;-73
2023/11/11 01:57:07;;;;;;;;;;;;;;;7.44;99.93;98632.56;5013537;28;19917;-73
2023/11/11 01:59:34;;;;;;;;;;;;;;;7.07;100.00;98645.34;5014902;28;19914;-73
2023/11/11 02:02:00;;;;;;;;;;;;;;;7.12;100.00;98643.19;5019939;28;19924;-73
2023/11/11 02:04:26;;;;;;;;;;;;;;;7.23;99.26;98635.28;5034465;28;19917;-73
2023/11/11 02:06:51;;;;;;;;;;;;;;;7.19;99.29;98634.34;5032165;28;19913;-73
2023/11/11 02:09:22;;;;;;;;;;;;;;;7.12;98.95;98634.03;5032682;28;20372;-73
2023/11/11 02:11:48;;;;;;;;;;;;;;;6.96;100.00;98630.94;5014617;28;20426;-73
2023/11/11 02:14:13;;;;;;;;;;;;;;;6.94;100.00;98636.88;5022211;28;20008;-73
2023/11/11 02:16:39;;;;;;;;;;;;;;;6.94;100.00;98652.72;5034247;28;19921;-73
2023/11/11 02:19:04;;;;;;;;;;;;;;;6.84;100.00;98642.78;5034245;28;19913;-73
2023/11/11 02:21:31;;;;;;;;;;;;;;;6.94;100.00;98644.38;5033481;28;19913;-73
2023/11/11 02:23:58;;;;;;;;;;;;;;;6.94;100.00;98622.97;5032744;28;19924;-73
2023/11/11 02:26:24;;;;;;;;;;;;;;;6.97;100.00;98630.63;5031717;28;19924;-73
2023/11/11 02:28:51;;;;;;;;;;;;;;;6.90;100.00;98623.94;5014206;28;20406;-73
2023/11/11 02:31:16;;;;;;;;;;;;;;;6.89;100.00;98623.13;5028271;28;19921;-73
2023/11/11 02:33:43;;;;;;;;;;;;;;;6.83;100.00;98622.47;5028221;28;20289;-73
2023/11/11 02:36:09;;;;;;;;;;;;;;;7.00;100.00;98618.03;5014272;28;19913;-73
2023/11/11 02:38:34;;;;;;;;;;;;;;;6.73;100.00;98604.19;5022820;28;19984;-73
2023/11/11 02:40:59;;;;;;;;;;;;;;;6.60;100.00;98613.56;5033415;28;20288;-73
2023/11/11 02:43:25;;;;;;;;;;;;;;;6.72;100.00;98623.97;5033849;28;20311;-73
2023/11/11 02:45:50;;;;;;;;;;;;;;;6.80;100.00;98619.53;5025990;28;20063;-73
2023/11/11 02:48:15;;;;;;;;;;;;;;;6.90;100.00;98612.84;5033704;28;19920;-73
2023/11/11 02:50:41;;;;;;;;;;;;;;;6.77;100.00;98618.25;5033548;28;19924;-73
2023/11/11 02:53:06;;;;;;;;;;;;;;;6.85;100.00;98603.50;5033914;28;19971;-73
2023/11/11 02:55:31;;;;;;;;;;;;;;;6.88;99.92;98611.22;5032844;28;19925;-73
2023/11/11 02:57:57;;;;;;;;;;;;;;;6.19;100.00;98612.94;5033486;28;19917;-73
2023/11/11 03:00:22;;;;;;;;;;;;;;;6.45;100.00;98614.88;5027595;28;19921;-73
2023/11/11 03:02:48;;;;;;;;;;;;;;;6.48;100.00;98621.75;5028874;28;19971;-73
2023/11/11 03:05:13;;;;;;;;;;;;;;;6.17;100.00;98629.91;5013722;28;19940;-73
2023/11/11 03:07:38;;;;;;;;;;;;;;;5.95;100.00;98613.34;5013674;28;19963;-73
2023/11/11 03:10:07;;;;;;;;;;;;;;;5.78;100.00;98611.38;5013774;28;19914;-73
2023/11/11 03:12:32;;;;;;;;;;;;;;;6.08;100.00;98600.50;5031744;28;19921;-73
2023/11/11 03:14:59;;;;;;;;;;;;;;;5.85;100.00;98607.00;5031334;28;19936;-73
2023/11/11 03:17:25;;;;;;;;;;;;;;;5.83;100.00;98594.59;5013438;28;19920;-73
2023/11/11 03:19:50;;;;;;;;;;;;;;;5.97;100.00;98599.97;5011628;28;20296;-73
2023/11/11 03:22:16;;;;;;;;;;;;;;;6.15;100.00;98585.00;5032437;28;19921;-73
2023/11/11 03:24:41;;;;;;;;;;;;;;;6.34;100.00;98580.25;5032128;28;19924;-73
2023/11/11 03:27:07;;;;;;;;;;;;;;;6.28;100.00;98558.19;5032274;28;19921;-73
2023/11/11 03:29:32;;;;;;;;;;;;;;;6.39;100.00;98561.44;5032893;28;19917;-73
2023/11/11 03:31:57;;;;;;;;;;;;;;;6.41;100.00;98541.69;5029484;28;19918;-73
2023/11/11 03:34:22;;;;;;;;;;;;;;;6.39;100.00;98532.84;5013079;28;19922;-73
2023/11/11 03:36:48;;;;;;;;;;;;;;;6.23;100.00;98558.34;5028299;28;20248;-73
2023/11/11 03:39:14;;;;;;;;;;;;;;;6.32;100.00;98553.59;5025940;28;19971;-73
2023/11/11 03:41:39;;;;;;;;;;;;;;;6.04;100.00;98551.19;5031881;28;19921;-73
2023/11/11 03:44:04;;;;;;;;;;;;;;;6.11;100.00;98533.22;5032448;28;19968;-73
2023/11/11 03:46:29;;;;;;;;;;;;;;;6.22;100.00;98520.63;5032206;28;19917;-73
2023/11/11 03:48:55;;;;;;;;;;;;;;;6.06;100.00;98519.50;5025103;28;20004;-73
2023/11/11 03:51:20;;;;;;;;;;;;;;;6.11;100.00;98524.88;5032502;28;19967;-71
2023/11/11 03:53:45;;;;;;;;;;;;;;;6.22;100.00;98534.50;5032524;28;20003;-70
2023/11/11 03:56:10;;;;;;;;;;;;;;;5.70;100.00;98522.25;5032019;28;19956;-70
2023/11/11 03:58:36;;;;;;;;;;;;;;;5.37;100.00;98533.81;5032035;28;19924;-70
2023/11/11 04:01:01;;;;;;;;;;;;;;;5.36;100.00;98540.50;5031800;28;19924;-71
2023/11/11 04:03:26;;;;;;;;;;;;;;;5.69;100.00;98517.03;5032397;28;20648;-70
2023/11/11 04:05:52;;;;;;;;;;;;;;;5.94;100.00;98529.28;5025286;28;19913;-70
2023/11/11 04:08:19;;;;;;;;;;;;;;;6.07;100.00;98523.91;5012552;28;19924;-70
2023/11/11 04:10:44;;;;;;;;;;;;;;;6.10;100.00;98504.66;5016303;28;19971;-70
2023/11/11 04:13:12;;;;;;;;;;;;;;;6.04;100.00;98523.44;5032020;28;19917;-70
2023/11/11 04:15:37;;;;;;;;;;;;;;;5.79;100.00;98505.59;5031924;28;19913;-70
2023/11/11 04:18:02;;;;;;;;;;;;;;;5.93;100.00;98516.56;5032257;28;20430;-70
2023/11/11 04:20:27;;;;;;;;;;;;;;;5.74;100.00;98519.66;5032097;28;20435;-72
2023/11/11 04:22:53;;;;;;;;;;;;;;;5.92;100.00;98537.13;5029333;28;20038;-74
2023/11/11 04:25:18;;;;;;;;;;;;;;;6.13;100.00;98519.81;5015390;28;20399;-73
2023/11/11 04:27:44;;;;;;;;;;;;;;;5.95;100.00;98546.75;5031600;28;19921;-73
2023/11/11 04:30:10;;;;;;;;;;;;;;;5.82;100.00;98557.69;5031998;28;20074;-73
2023/11/11 04:32:36;;;;;;;;;;;;;;;5.94;100.00;98550.66;5031159;28;20458;-71
2023/11/11 04:35:01;;;;;;;;;;;;;;;5.90;100.00;98531.91;5016797;28;19924;-71
2023/11/11 04:37:27;;;;;;;;;;;;;;;6.03;100.00;98549.56;5012278;28;19913;-71
2023/11/11 04:39:57;;;;;;;;;;;;;;;5.99;100.00;98537.44;5013996;28;20319;-70
2023/11/11 04:42:24;;;;;;;;;;;;;;;6.13;100.00;98525.38;5031878;28;19925;-71
2023/11/11 04:44:50;;;;;;;;;;;;;;;6.18;100.00;98495.47;5031808;28;20020;-71
2023/11/11 04:47:15;;;;;;;;;;;;;;;6.29;100.00;98504.28;5031833;28;19913;-71
2023/11/11 04:49:41;;;;;;;;;;;;;;;6.15;100.00;98498.06;5031743;28;19921;-71
2023/11/11 04:52:06;;;;;;;;;;;;;;;6.05;100.00;98485.38;5031686;28;19917;-71
2023/11/11 04:54:31;;;;;;;;;;;;;;;5.99;100.00;98498.56;5030990;28;20008;-71
2023/11/11 04:56:59;;;;;;;;;;;;;;;5.97;100.00;98509.19;5030990;28;20003;-71
2023/11/11 04:59:25;;;;;;;;;;;;;;;5.68;100.00;98502.34;5031592;28;19913;-71
2023/11/11 05:01:53;;;;;;;;;;;;;;;5.83;100.00;98497.44;5031640;28;20016;-71
2023/11/11 05:04:18;;;;;;;;;;;;;;;5.98;100.00;98491.38;5031754;28;19913;-71
2023/11/11 05:06:44;;;;;;;;;;;;;;;5.98;100.00;98512.78;5031653;28;20395;-71
2023/11/11 05:09:09;;;;;;;;;;;;;;;5.71;100.00;98510.00;5030133;28;19917;-71
2023/11/11 05:11:36;;;;;;;;;;;;;;;5.80;100.00;98509.22;5026480;28;19968;-71
2023/11/11 05:14:05;;;;;;;;;;;;;;;5.83;100.00;98484.38;5031545;28;19913;-71
2023/11/11 05:16:39;;;;;;;;;;;;;;;5.79;100.00;98502.00;5031533;28;19917;-71
2023/11/11 05:19:07;;;;;;;;;;;;;;;5.92;100.00;98519.66;5031532;28;19920;-71
2023/11/11 05:21:33;;;;;;;;;;;;;;;5.26;100.00;98507.50;5030993;28;19928;-71
2023/11/11 05:23:58;;;;;;;;;;;;;;;5.66;100.00;98512.94;5030208;28;20379;-71
2023/11/11 05:26:23;;;;;;;;;;;;;;;5.85;100.00;98501.53;5029080;28;19917;-71
2023/11/11 05:28:49;;;;;;;;;;;;;;;5.80;100.00;98512.00;5026586;28;20017;-71
2023/11/11 05:31:14;;;;;;;;;;;;;;;5.90;100.00;98506.09;5011541;28;20308;-71
2023/11/11 05:33:39;;;;;;;;;;;;;;;6.02;100.00;98502.69;5012435;28;19913;-71
2023/11/11 05:36:09;;;;;;;;;;;;;;;6.06;100.00;98495.31;5031239;28;19955;-71
2023/11/11 05:38:34;;;;;;;;;;;;;;;6.09;100.00;98504.97;5030014;28;20020;-71
2023/11/11 05:40:59;;;;;;;;;;;;;;;5.99;100.00;98514.44;5029024;28;20419;-71
2023/11/11 05:43:25;;;;;;;;;;;;;;;5.89;100.00;98496.94;5032525;28;19971;-71
2023/11/11 05:45:51;;;;;;;;;;;;;;;5.95;100.00;98489.28;5034922;28;20404;-71
2023/11/11 05:48:17;;;;;;;;;;;;;;;6.08;100.00;98495.00;5026967;28;20350;-71
2023/11/11 05:50:44;;;;;;;;;;;;;;;5.97;100.00;98494.47;5034617;28;20435;-71
2023/11/11 05:53:09;;;;;;;;;;;;;;;6.05;100.00;98477.03;5034903;28;19913;-71
2023/11/11 05:55:35;;;;;;;;;;;;;;;6.02;100.00;98492.38;5033433;28;19920;-71
2023/11/11 05:58:01;;;;;;;;;;;;;;;6.01;100.00;98493.53;5048930;28;19965;-71
2023/11/11 06:00:27;;;;;;;;;;;;;;;6.21;100.00;98494.00;5030645;28;20395;-71
2023/11/11 06:02:53;;;;;;;;;;;;;;;6.27;100.00;98495.44;5032055;28;19917;-71
2023/11/11 06:05:18;;;;;;;;;;;;;;;6.30;100.00;98505.91;5031822;28;19921;-72
2023/11/11 06:07:44;;;;;;;;;;;;;;;6.48;100.00;98505.84;5030074;28;19917;-71
2023/11/11 06:10:09;;;;;;;;;;;;;;;6.46;100.00;98511.75;5031866;28;19949;-71
2023/11/11 06:12:35;;;;;;;;;;;;;;;6.49;100.00;98504.72;5032005;28;20004;-71
2023/11/11 06:15:00;;;;;;;;;;;;;;;6.57;100.00;98512.22;5027756;28;19921;-73
2023/11/11 06:17:26;;;;;;;;;;;;;;;6.54;100.00;98490.66;5033762;28;19917;-70
2023/11/11 06:19:53;;;;;;;;;;;;;;;6.43;100.00;98501.28;5026381;28;20032;-72
2023/11/11 06:22:18;;;;;;;;;;;;;;;6.49;100.00;98474.16;5028804;28;19924;-71
2023/11/11 06:24:44;;;;;;;;;;;;;;;6.23;100.00;98496.47;5032560;28;19917;-68
2023/11/11 06:27:09;;;;;;;;;;;;;;;5.53;100.00;98502.81;5023835;28;20400;-70
2023/11/11 06:29:35;;;;;;;;;;;;;;;5.84;100.00;98505.44;5030326;28;19924;-70
2023/11/11 06:32:00;;;;;;;;;;;;;;;5.90;100.00;98508.84;5033949;28;20008;-72
2023/11/11 06:34:25;;;;;;;;;;;;;;;5.97;100.00;98503.63;5030890;28;19913;-71
2023/11/11 06:36:51;;;;;;;;;;;;;;;6.16;100.00;98494.19;5034099;28;19917;-70
2023/11/11 06:39:16;;;;;;;;;;;;;;;6.13;100.00;98492.88;5026127;28;19960;-69
2023/11/11 06:41:41;;;;;;;;;;;;;;;6.14;100.00;98488.94;5033633;28;20007;-75
2023/11/11 06:44:07;;;;;;;;;;;;;;;6.16;100.00;98496.97;5033962;28;20289;-72
2023/11/11 06:46:32;;;;;;;;;;;;;;;6.27;100.00;98492.66;5032548;28;19920;-69
2023/11/11 06:48:59;;;;;;;;;;;;;;;5.97;100.00;98511.13;5033115;28;19917;-70
2023/11/11 06:51:24;;;;;;;;;;;;;;;5.74;100.00;98526.00;5030507;28;19918;-69
2023/11/11 06:53:50;;;;;;;;;;;;;;;5.55;100.00;98520.78;5024070;28;19970;-69
2023/11/11 06:56:16;;;;;;;;;;;;;;;5.57;100.00;98521.25;5026695;28;19920;-69
2023/11/11 06:58:41;;;;;;;;;;;;;;;5.70;100.00;98547.22;5029733;28;19928;-69
2023/11/11 07:01:07;;;;;;;;;;;;;;;5.73;100.00;98563.22;5030572;28;19913;-69
2023/11/11 07:03:35;;;;;;;;;;;;;;;5.90;100.00;98589.34;5031099;28;20315;-70
2023/11/11 07:06:00;;;;;;;;;;;;;;;6.04;100.00;98572.56;5029034;28;19917;-70
2023/11/11 07:08:27;;;;;;;;;;;;;;;5.96;100.00;98556.69;5025462;28;19955;-69
2023/11/11 07:10:53;;;;;;;;;;;;;;;5.75;100.00;98533.19;5029729;28;19934;-68
2023/11/11 07:13:20;;;;;;;;;;;;;;;5.98;100.00;98546.91;5020134;28;19914;-68
2023/11/11 07:15:45;;;;;;;;;;;;;;;6.10;100.00;98526.03;5023920;28;19950;-68
2023/11/11 07:18:11;;;;;;;;;;;;;;;6.19;100.00;98535.19;5031508;28;20397;-68
2023/11/11 07:20:36;;;;;;;;;;;;;;;6.00;100.00;98516.84;5029786;28;19917;-69
2023/11/11 07:23:01;;;;;;;;;;;;;;;6.23;100.00;98519.47;5031300;28;20053;-69
2023/11/11 07:25:27;;;;;;;;;;;;;;;6.31;100.00;98529.75;5029669;28;20461;-69
2023/11/11 07:27:52;;;;;;;;;;;;;;;6.24;100.00;98515.53;5024212;28;20324;-70
2023/11/11 07:30:17;;;;;;;;;;;;;;;6.23;100.00;98499.25;5027051;28;20306;-69
2023/11/11 07:32:45;;;;;;;;;;;;;;;6.27;100.00;98486.31;5030731;28;19929;-67
2023/11/11 07:35:11;;;;;;;;;;;;;;;6.44;100.00;98480.69;5032120;28;20302;-69
2023/11/11 07:37:37;;;;;;;;;;;;;;;6.58;100.00;98477.72;5027445;28;19925;-69
2023/11/11 07:40:04;;;;;;;;;;;;;;;6.54;100.00;98473.97;5026361;28;20016;-69
2023/11/11 07:42:29;;;;;;;;;;;;;;;6.64;100.00;98467.22;5030855;28;20350;-68
2023/11/11 07:44:55;;;;;;;;;;;;;;;6.73;100.00;98467.19;5031298;28;19981;-68
2023/11/11 07:47:21;;;;;;;;;;;;;;;6.83;100.00;98461.25;5029482;28;20012;-68
2023/11/11 07:49:47;;;;;;;;;;;;;;;6.91;100.00;98456.81;5030336;28;19974;-68
2023/11/11 07:52:12;;;;;;;;;;;;;;;6.81;100.00;98438.56;5031187;28;20375;-68
2023/11/11 07:54:38;;;;;;;;;;;;;;;6.81;100.00;98446.88;5032411;28;19913;-69
2023/11/11 07:57:07;;;;;;;;;;;;;;;6.81;100.00;98444.09;5023158;28;19928;-68
2023/11/11 07:59:32;;;;;;;;;;;;;;;7.02;100.00;98437.78;5023190;28;19952;-69
2023/11/11 08:01:58;;;;;;;;;;;;;;;7.14;100.00;98442.59;5030176;28;19925;-68
2023/11/11 08:04:24;;;;;;;;;;;;;;;7.05;100.00;98439.06;5023351;28;19957;-68
2023/11/11 08:06:49;;;;;;;;;;;;;;;7.20;100.00;98434.88;5029185;28;20296;-68
2023/11/11 08:09:16;;;;;;;;;;;;;;;7.19;100.00;98431.31;5031743;28;19914;-68
2023/11/11 08:11:42;;;;;;;;;;;;;;;7.18;100.00;98423.28;5031015;28;20010;-67
2023/11/11 08:14:07;;;;;;;;;;;;;;;7.06;100.00;98422.03;5031449;28;19952;-67
2023/11/11 08:16:34;;;;;;;;;;;;;;;7.24;100.00;98424.69;5030871;28;20488;-68
2023/11/11 08:18:59;;;;;;;;;;;;;;;7.32;100.00;98425.81;5031879;28;19998;-69
2023/11/11 08:21:29;;;;;;;;;;;;;;;7.37;100.00;98431.97;5028970;28;19956;-68
2023/11/11 08:23:54;;;;;;;;;;;;;;;7.27;100.00;98427.63;5028416;28;20008;-68
2023/11/11 08:26:20;;;;;;;;;;;;;;;7.36;100.00;98430.34;5031717;28;20390;-67
2023/11/11 08:28:45;;;;;;;;;;;;;;;7.48;100.00;98420.41;5027422;28;19929;-66
2023/11/11 08:31:11;;;;;;;;;;;;;;;7.55;100.00;98420.69;5031844;28;19917;-69
2023/11/11 08:33:36;;;;;;;;;;;;;;;7.49;100.00;98399.81;5023578;28;20289;-68
2023/11/11 08:36:02;;;;;;;;;;;;;;;7.36;100.00;98374.72;5027904;28;20403;-67
2023/11/11 08:38:27;;;;;;;;;;;;;;;7.07;100.00;98345.81;5025503;28;20024;-71
2023/11/11 08:40:52;;;;;;;;;;;;;;;6.81;100.00;98316.25;5025665;28;20492;-71
2023/11/11 08:43:18;;;;;;;;;;;;;;;6.72;100.00;98207.09;5023269;28;20384;-69
2023/11/11 08:45:43;;;;;;;;;;;;;;;6.60;100.00;98160.63;5028063;28;19920;-67
2023/11/11 08:48:08;;;;;;;;;;;;;;;6.66;100.00;98186.25;5022908;28;19925;-69
2023/11/11 08:50:33;;;;;;;;;;;;;;;6.71;100.00;98244.38;5023246;28;19940;-69
2023/11/11 08:52:59;;;;;;;;;;;;;;;6.84;100.00;98226.63;5025424;28;20024;-69
2023/11/11 08:55:25;;;;;;;;;;;;;;;6.86;100.00;98215.97;5027525;28;19935;-69
2023/11/11 08:57:50;;;;;;;;;;;;;;;6.93;100.00;98259.91;5022296;28;19921;-70
2023/11/11 09:00:16;;;;;;;;;;;;;;;6.86;100.00;98307.69;5030844;28;19928;-68
2023/11/11 09:02:41;;;;;;;;;;;;;;;6.87;100.00;98300.97;5024933;28;19974;-69
2023/11/11 09:05:07;;;;;;;;;;;;;;;6.85;100.00;98294.16;5026146;28;19917;-68
2023/11/11 09:07:34;;;;;;;;;;;;;;;7.14;100.00;98264.63;5025675;28;19921;-70
2023/11/11 09:10:00;;;;;;;;;;;;;;;7.06;100.00;98274.69;5026628;28;20063;-67
2023/11/11 09:12:26;;;;;;;;;;;;;;;7.16;100.00;98282.59;5025215;28;19921;-67
2023/11/11 09:14:52;;;;;;;;;;;;;;;7.26;100.00;98264.66;5024188;28;19928;-69
2023/11/11 09:17:17;;;;;;;;;;;;;;;7.38;100.00;98249.16;5028203;28;19925;-70
2023/11/11 09:19:43;;;;;;;;;;;;;;;7.34;100.00;98264.94;5029299;28;19952;-69
2023/11/11 09:22:08;;;;;;;;;;;;;;;7.29;100.00;98277.09;5029810;28;19952;-69
2023/11/11 09:24:34;;;;;;;;;;;;;;;7.48;100.00;98264.59;5027109;28;20399;-70
2023/11/11 09:27:00;;;;;;;;;;;;;;;7.67;100.00;98266.88;5030830;28;19917;-68
2023/11/11 09:29:25;;;;;;;;;;;;;;;7.57;100.00;98304.28;5025256;28;19928;-72
2023/11/11 09:31:51;;;;;;;;;;;;;;;7.66;100.00;98305.03;5030377;28;20450;-68
2023/11/11 09:34:16;;;;;;;;;;;;;;;7.67;100.00;98278.81;5027495;28;20000;-68
2023/11/11 09:36:41;;;;;;;;;;;;;;;7.89;100.00;98273.16;5031146;28;20323;-68
2023/11/11 09:39:08;;;;;;;;;;;;;;;7.69;100.00;98290.41;5029684;28;19917;-68
2023/11/11 09:41:33;;;;;;;;;;;;;;;7.98;100.00;98273.88;5028714;28;20399;-69
2023/11/11 09:43:59;;;;;;;;;;;;;;;8.00;100.00;98288.25;5026544;28;19971;-65
2023/11/11 09:46:28;;;;;;;;;;;;;;;8.00;100.00;98288.25;5025887;28;19921;-68
2023/11/11 09:48:54;;;;;;;;;;;;;;;8.07;100.00;98302.41;5028877;28;20315;-67
2023/11/11 09:51:20;;;;;;;;;;;;;;;8.23;100.00;98301.72;5029971;28;19917;-67
2023/11/11 09:53:47;;;;;;;;;;;;;;;8.26;100.00;98287.09;5026478;28;19921;-67
2023/11/11 09:56:12;;;;;;;;;;;;;;;8.32;100.00;98269.00;5029601;28;19960;-67
2023/11/11 09:58:38;;;;;;;;;;;;;;;8.47;100.00;98247.16;5027920;28;19964;-68
2023/11/11 10:01:03;;;;;;;;;;;;;;;8.37;100.00;98226.94;5030864;28;20286;-68
2023/11/11 10:03:29;;;;;;;;;;;;;;;8.42;100.00;98220.34;5029516;28;20447;-69
2023/11/11 10:05:54;;;;;;;;;;;;;;;8.41;100.00;98204.78;5028812;28;19925;-69
2023/11/11 10:08:24;;;;;;;;;;;;;;;8.46;100.00;98170.28;5028174;28;19940;-69
2023/11/11 10:10:49;;;;;;;;;;;;;;;8.61;100.00;98227.31;5043601;28;20323;-69
2023/11/11 10:13:15;;;;;;;;;;;;;;;8.85;100.00;98245.91;5028626;28;20397;-69
2023/11/11 10:15:40;;;;;;;;;;;;;;;9.23;100.00;98235.44;5026049;28;19921;-68
2023/11/11 10:18:06;;;;;;;;;;;;;;;9.44;100.00;98224.03;5028362;28;19917;-68
2023/11/11 10:20:31;;;;;;;;;;;;;;;9.68;100.00;98225.06;5030221;28;19917;-68
2023/11/11 10:22:58;;;;;;;;;;;;;;;9.82;100.00;98210.66;5029871;28;19928;-70
2023/11/11 10:25:23;;;;;;;;;;;;;;;9.76;100.00;98198.94;5030022;28;19918;-68
2023/11/11 10:27:49;;;;;;;;;;;;;;;9.65;100.00;98187.50;5027042;28;19932;-69
2023/11/11 10:30:19;;;;;;;;;;;;;;;9.59;100.00;98188.13;5024867;28;20358;-68
2023/11/11 10:32:48;;;;;;;;;;;;;;;9.57;100.00;98176.50;5023720;28;19990;-69
2023/11/11 10:35:14;;;;;;;;;;;;;;;9.71;100.00;98178.84;5024722;28;19925;-68
2023/11/11 10:37:39;;;;;;;;;;;;;;;9.94;100.00;98160.28;5026886;28;20446;-69
2023/11/11 10:40:05;;;;;;;;;;;;;;;10.09;100.00;98149.44;5031552;28;19925;-70
2023/11/11 10:42:30;;;;;;;;;;;;;;;10.24;100.00;98156.16;5033288;28;19983;-69
2023/11/11 10:44:57;;;;;;;;;;;;;;;10.44;100.00;98148.63;5032121;28;19948;-70
2023/11/11 10:47:23;;;;;;;;;;;;;;;10.67;100.00;98139.53;5019867;28;19914;-70
2023/11/11 10:49:49;;;;;;;;;;;;;;;10.72;100.00;98142.00;5016844;28;19964;-70
2023/11/11 10:52:15;;;;;;;;;;;;;;;10.87;100.00;98123.53;5032483;28;19928;-77
2023/11/11 10:54:41;;;;;;;;;;;;;;;11.09;100.00;98130.34;5030283;28;20380;-69
2023/11/11 10:57:07;;;;;;;;;;;;;;;11.28;100.00;98128.69;5033470;28;19917;-69
2023/11/11 10:59:33;;;;;;;;;;;;;;;11.35;100.00;98131.63;5033246;28;19914;-69
2023/11/11 11:01:59;;;;;;;;;;;;;;;11.47;100.00;98125.00;5032886;28;19913;-69
2023/11/11 11:04:27;;;;;;;;;;;;;;;11.57;100.00;98136.78;5032759;28;19920;-69
2023/11/11 11:06:58;;;;;;;;;;;;;;;11.57;99.78;98142.38;5030856;28;19921;-69
2023/11/11 11:09:50;;;;;;;;;;;;;;;11.68;99.32;98131.34;5024429;28;19918;-69
2023/11/11 11:12:22;;;;;;;;;;;;;;;11.49;100.00;98122.63;5019075;28;19921;-70
2023/11/11 11:14:50;;;;;;;;;;;;;;;11.41;100.00;98122.91;5033066;28;19956;-69
2023/11/11 11:17:16;;;;;;;;;;;;;;;11.61;100.00;98118.84;5033084;28;19913;-69
2023/11/11 11:20:03;;;;;;;;;;;;;;;11.14;100.00;98109.63;5028117;28;19948;-69
2023/11/11 11:22:39;;;;;;;;;;;;;;;11.52;100.00;98115.50;5031396;28;20336;-69
2023/11/11 11:25:45;;;;;;;;;;;;;;;11.94;100.00;98113.75;5022808;28;20035;-69
2023/11/11 11:28:10;;;;;;;;;;;;;;;12.19;100.00;98111.34;4985608;28;19928;-69
2023/11/11 11:30:39;;;;;;;;;;;;;;;12.19;100.00;98102.94;5026893;28;19917;-69
2023/11/11 11:33:06;;;;;;;;;;;;;;;12.08;100.00;98107.56;5031020;28;19932;-70
2023/11/11 11:35:33;;;;;;;;;;;;;;;11.93;100.00;98107.31;5031456;28;19987;-69
2023/11/11 11:38:01;;;;;;;;;;;;;;;12.06;100.00;98098.72;5028789;28;19924;-69
2023/11/11 11:40:26;;;;;;;;;;;;;;;11.92;100.00;98113.31;5027192;28;20395;-69
2023/11/11 11:42:52;;;;;;;;;;;;;;;11.92;100.00;98114.09;5032413;28;19918;-71
2023/11/11 11:45:27;;;;;;;;;;;;;;;11.79;100.00;98119.13;5031827;28;20303;-70
2023/11/11 11:47:53;;;;;;;;;;;;;;;11.84;100.00;98106.81;5029992;28;19967;-75
2023/11/11 11:50:18;;;;;;;;;;;;;;;11.91;100.00;98101.28;5031454;28;20383;-72
2023/11/11 11:52:44;;;;;;;;;;;;;;;11.66;100.00;98103.72;5029859;28;19932;-68
2023/11/11 11:55:09;;;;;;;;;;;;;;;11.84;100.00;98090.00;5023759;28;19924;-70
2023/11/11 11:57:34;;;;;;;;;;;;;;;11.79;100.00;98109.91;5024902;28;20045;-67
2023/11/11 12:00:09;;;;;;;;;;;;;;;11.69;100.00;98107.75;5018841;28;20327;-69
2023/11/11 12:02:35;;;;;;;;;;;;;;;11.63;100.00;98113.69;5026889;28;19921;-72
2023/11/11 12:05:04;;;;;;;;;;;;;;;11.47;100.00;98108.22;5030123;28;19932;-69
2023/11/11 12:07:29;;;;;;;;;;;;;;;11.46;100.00;98102.97;5029970;28;19917;-68
2023/11/11 12:09:55;;;;;;;;;;;;;;;11.33;100.00;98099.56;5029869;28;20371;-71
2023/11/11 12:12:27;;;;;;;;;;;;;;;11.47;100.00;98110.22;5030016;28;20017;-69
2023/11/11 12:14:53;;;;;;;;;;;;;;;11.15;100.00;98102.84;5028195;28;19964;-71
2023/11/11 12:17:20;;;;;;;;;;;;;;;11.03;100.00;98094.63;5030272;28;20006;-72
2023/11/11 12:19:48;;;;;;;;;;;;;;;10.92;100.00;98091.66;5022118;28;19913;-72
2023/11/11 12:22:14;;;;;;;;;;;;;;;10.83;100.00;98075.13;5029129;28;19975;-71
2023/11/11 12:24:40;;;;;;;;;;;;;;;10.80;100.00;98071.06;5029674;28;19924;-71
2023/11/11 12:27:07;;;;;;;;;;;;;;;10.81;100.00;98066.28;5030824;28;20392;-74
2023/11/11 12:29:43;;;;;;;;;;;;;;;10.91;100.00;98070.47;5031254;28;19967;-72
2023/11/11 12:32:13;;;;;;;;;;;;;;;10.96;100.00;98086.91;5029378;28;19921;-75
2023/11/11 12:34:39;;;;;;;;;;;;;;;10.94;100.00;98090.09;5031448;28;19936;-69
2023/11/11 12:37:04;;;;;;;;;;;;;;;10.93;100.00;98102.47;5030414;28;19932;-74
2023/11/11 12:39:30;;;;;;;;;;;;;;;11.11;100.00;98098.41;5030895;28;19917;-72